Weather observations for the past three days for
Weno Island - Chuuk Int. Airport
Metric (Imperial)
Date Time (+10) Wind (kph) Vis. (km) Weather Sky Cond. Temperature (ºC) Relative Humidity Wind Chill (°C) Heat Index (°C) Pressure Precipitation (cm)
Air Dwpt 6 hour altimeter (cm) sea level (mb) 1 hr 3 hr 6 hr
Max. Min.
03 05:53 Calm 24.14 Overcast FEW014 BKN120 OVC280 26 25 94% 28 75.51 1006.9
03 04:50 Calm 24.14 Overcast FEW014 SCT120 OVC280 26 24.8 93% 28 75.49 1006.6
03 03:50 Vrbl 6 24.14 Overcast FEW014 BKN120 OVC280 25.9 24.8 27 25.7 94% 28 75.49 1006.6
03 02:50 Vrbl 6 24.14 Overcast FEW012 SCT120 OVC280 25.8 24.7 94% 28 75.49 1006.6
03 01:50 Calm 24.14 Overcast FEW012 SCT120 OVC280 25.8 24.6 93% 28 75.54 1007.2
03 00:50 Calm 24.14 Overcast FEW012 BKN120 OVC280 25.7 24.7 94% 27 75.57 1007.6
02 23:54 Calm 24.14 Overcast FEW012CB BKN120 OVC280 26.3 25.1 93% 29 75.64 1008.4
02 22:52 Calm 24.14 Overcast SCT012CB BKN120 OVC280 26.4 25.2 93% 29 75.69 1009.3
02 21:52 E 11 22.53 Overcast SCT012CB OVC120 26.6 25.4 27.1 26.2 93% 30 75.69 1009.4 0.03
02 20:50 Calm 24.14 Overcast FEW014 SCT120 OVC280 27 25.3 90% 31 75.67 1009.1
02 19:51 Calm 24.14 Overcast FEW012 BKN120 OVC280 27 25.3 90% 31 75.64 1008.6
02 18:56 Calm 24.14 Overcast FEW012 BKN120 OVC280 27 25.2 90% 31 75.59 1008.1
02 17:51 Calm 24.14 Overcast FEW012 FEW040 BKN120 OVC280 26.9 25 89% 30 75.51 1007.1
02 16:54 Calm 24.14 Overcast FEW012 FEW030 BKN120 OVC280 27.1 24.6 86% 31 75.44 1006.1
02 15:50 Vrbl 7 24.14 Overcast FEW014 BKN120 OVC280 26.2 24.1 30.9 26.2 88% 28 75.44 1005.7 0.66
02 14:54 SE 13 22.53 Light Showers Rain SCT012CB BKN120 OVC280 26.3 25 93% 29 75.49 1006.6
02 13:50 Vrbl 7 24.14 Mostly Cloudy SCT012CB BKN120 BKN280 28.4 25.6 85% 34 75.49 1006.7
02 12:52 SE 13 22.53 Light Showers Rain SCT016CB OVC120 29.1 25.8 82% 36 75.57 1007.8
02 11:50 Vrbl 7 24.14 Overcast FEW014CB BKN120 OVC280 29.1 25.1 79% 35 75.62 1008.3
02 10:50 E 13 G 31 24.14 Overcast FEW014CB BKN120 OVC280 30.9 26 75% 39 75.64 1008.6
02 08:50 Vrbl 7 24.14 Overcast SCT014CB BKN120 OVC280 29.7 25.2 77% 36 75.69 1009.3
02 07:50 Vrbl 7 24.14 Overcast SCT014CB BKN120 OVC280 28.6 25.4 83% 34 75.69 1009.3
02 06:51 Vrbl 6 24.14 Overcast SCT014 BKN120 OVC270 28 25.4 86% 33 75.64 1008.8
02 05:53 Vrbl 7 24.14 Overcast SCT014 BKN120 OVC270 27.8 24.7 83% 32 75.59 1007.8
02 04:52 Vrbl 7 24.14 Overcast SCT014 BKN120 OVC270 27.6 24.7 84% 32 75.59 1007.9
02 03:50 NE 13 24.14 Overcast SCT014CB BKN120 OVC270 27.7 25.1 27.7 25.3 86% 32 75.51 1006.7
02 02:50 NE 13 24.14 Overcast SCT014CB BKN120 OVC270 27.5 25.1 87% 32 75.51 1006.9
02 01:54 NE 13 G 30 24.14 Overcast SCT014CB BKN120 OVC270 27.7 25.1 86% 32 75.51 1007.1
02 00:50 Vrbl 6 24.14 Mostly Cloudy FEW014 BKN280 27.5 25.1 87% 32 75.59 1007.8
01 23:50 Vrbl 9 24.14 Partly Cloudy FEW014 SCT280 27.3 25.3 89% 31 75.64 1008.4
01 22:55 Vrbl 9 24.14 Partly Cloudy FEW014 SCT280 27.1 25.4 90% 31 75.67 1008.9
01 21:53 E 15 24.14 Partly Cloudy FEW014CB SCT280 26.9 25.4 28.2 26.9 92% 31 75.67 1009.1
01 20:51 Vrbl 9 24.14 Mostly Cloudy FEW014 BKN280 27 25.5 92% 31 75.64 1008.8
01 19:50 Vrbl 6 24.14 Overcast FEW014 BKN120 OVC280 27 25.6 92% 31 75.64 1008.6
01 18:50 Vrbl 7 24.14 Overcast FEW014 BKN120 OVC280 27 25.4 91% 31 75.59 1007.9
01 17:50 Vrbl 9 24.14 Showers in Vicinity SCT012CB BKN110 OVC280 27.4 25.7 90% 32 75.57 1007.6
01 16:50 E 13 24.14 Overcast FEW012 BKN120 OVC280 28.2 26 88% 34 75.51 1006.9
01 15:50 E 13 24.14 Overcast SCT014CB BKN120 OVC280 28.2 26 28.3 26.1 88% 34 75.51 1006.7 5.41
01 14:54 Vrbl 9 24.14 Showers in Vicinity SCT012CB BKN120 OVC280 27.7 26 90% 33 75.49 1006.6
01 13:50 Vrbl 7 24.14 Overcast SCT010 BKN120 OVC280 27.7 26.3 92% 33 75.51 1006.9
01 12:50 Vrbl 9 19.31 Light Showers Rain SCT010CB BKN110 OVC280 27.1 26 94% 31 75.59 1007.9 5.38
01 11:55 Vrbl 6 4.83 Showers Rain BKN011CB OVC100 26.1 25.2 95% 29 75.69 1009.3
01 08:53 Vrbl 9 24.14 Mostly Cloudy FEW013 BKN120 29.7 26.7 84% 38 75.74 1010.1
01 07:54 Vrbl 9 24.14 Overcast FEW013 BKN120 OVC280 28.9 26.1 85% 36 75.74 1010.0
01 06:50 Vrbl 9 24.14 Overcast FEW013 BKN120 OVC280 27.8 26.1 90% 33 75.64 1008.4 0.05
01 05:50 Vrbl 9 24.14 Overcast FEW013 BKN120 OVC280 27.2 25.5 90% 31 75.64 1008.4
01 04:54 Vrbl 9 24.14 Overcast SCT013CB BKN120 OVC280 27.4 25.5 89% 32 75.59 1008.1
01 03:53 Vrbl 9 24.14 Overcast SCT013CB BKN120 OVC280 27.3 25.5 28.1 26.9 90% 32 75.59 1008.1 0.05
01 02:50 Vrbl 9 24.14 Overcast SCT013CB BKN120 OVC280 26.9 25.3 91% 31 75.59 1007.9
01 01:50 Vrbl 6 24.14 Overcast SCT014CB BKN120 OVC280 27.3 25.7 91% 32 75.59 1008.1
01 00:51 Vrbl 6 24.14 Overcast SCT014CB BKN120 OVC280 27.4 25.8 91% 32 75.64 1008.4 0.05
30 23:55 Vrbl 6 24.14 Overcast SCT013CB BKN120 OVC280 27.5 25.9 91% 32 75.69 1009.4
30 22:50 Vrbl 6 19.31 Light Showers Rain SCT012CB OVC100 27.6 26.1 92% 33 75.72 1009.8
30 21:50 Vrbl 9 24.14 Mostly Cloudy FEW014 BKN280 28.1 26 30.7 27.9 88% 34 75.74 1010.0
30 20:50 Vrbl 6 24.14 Mostly Cloudy FEW014 BKN280 27.9 25.7 88% 33 75.72 1009.6
30 19:50 Vrbl 6 24.14 Mostly Cloudy FEW014 BKN280 27.9 25.4 86% 33 75.69 1009.3
30 18:50 E 11 24.14 Mostly Cloudy FEW014 BKN280 28.3 25.6 85% 34 75.64 1008.6
30 17:50 E 11 24.14 Overcast FEW014 SCT120 OVC280 29.1 25.6 81% 35 75.59 1007.9
30 16:50 Vrbl 7 24.14 Overcast FEW014 SCT120 OVC280 30.7 26.1 76% 39 75.54 1007.2
30 15:50 Vrbl 7 24.14 Overcast FEW014TCU SCT120 OVC280 30.7 25.9 31.4 29.9 76% 38 75.51 1007.1
30 14:50 Vrbl 7 24.14 Overcast FEW014 SCT120 OVC280 31.4 26.1 73% 40 75.51 1006.9
30 13:50 Vrbl 7 24.14 Overcast FEW014 SCT120 OVC280 31.4 26.4 75% 40 75.54 1007.2
30 11:50 NE 13 24.14 Overcast FEW014 BKN120 OVC280 30.5 26.4 79% 39 75.62 1008.4
30 10:50 NE 13 G 30 24.14 Overcast FEW014 BKN120 OVC280 30.2 26.4 80% 38 75.69 1009.3
30 09:51 NE 13 G 28 24.14 Overcast FEW014 BKN120 OVC280 29.9 26.2 29.9 26.1 81% 38 75.74 1010.0 0.51
30 07:51 NE 13 G 31 19.31 Light Showers Rain SCT013CB OVC120 26.1 25 94% 28 75.79 1010.6
Date Time (+10) Wind (kph) Vis. (km) Weather Sky Cond. Air Dwpt Max. Min. Relative Humidity Wind Chill (°C) Heat Index (°C) altimeter (cm) sea level (mb) 1 hr 3 hr 6 hr
6 hour
Temperature (ºC) Pressure Precipitation (cm)